Latest Weather Observations for Padthaway

IDS60801

Issued at 5:31 am CST Monday 31 August 2015 (issued every 30 minutes, with the page automatically refreshed every 10 minutes)

About weather observations | Map of weather stations | Latest weather observations for SA | Other Formats
Station Details ID: 026100 Name: PADTHAWAY SOUTH Lat: -36.65 Lon: 140.52 Height: 37.0 m
Data from the previous 72 hours. | See also: Recent months at Padthaway
Date/Time
CST
Temp
°C
App
Temp
°C
Dew
Point
Rel
Hum
%
Delta-T
°C
Wind Press
QNH
hPa
Press
MSL
hPa
Rain
since 9 am
mm
Dir
 
Spd
km/h
Gust
km/h
Spd
kts
Gust
kts
31/05:30am -0.7 -3.6 -1.1 97 0.1 SE 4 7 2 4 - - 0.0
31/05:00am -0.7 -4.6 -1.3 96 0.2 SSE 9 9 5 5 - - 0.0
31/04:30am -0.6 -3.9 -1.2 96 0.2 SE 6 7 3 4 - - 0.0
31/04:00am -0.5 -3.8 -1.1 96 0.2 SSE 6 7 3 4 - - 0.0
31/03:30am -0.6 -2.8 -1.2 96 0.2 CALM 0 0 0 0 - - 0.0
31/03:00am -0.5 -2.6 -1.1 96 0.2 CALM 0 0 0 0 - - 0.0
31/02:30am 0.1 -2.3 -0.5 96 0.2 SSE 2 7 1 4 - - 0.0
31/02:00am 0.2 -2.6 -0.4 96 0.2 SE 4 6 2 3 - - 0.0
31/01:30am 0.7 -2.6 0.1 96 0.2 SE 7 9 4 5 - - 0.0
31/01:00am 0.7 -1.3 0.0 95 0.3 CALM 0 0 0 0 - - 0.0
31/12:30am 0.8 -1.9 0.1 95 0.3 SE 4 6 2 3 - - 0.0
31/12:00am 1.4 -0.5 0.7 95 0.3 CALM 0 0 0 0 - - 0.0
 
Date/Time
CST
Temp
°C
App
Temp
°C
Dew
Point
Rel
Hum
%
Delta-T
°C
Wind Press
QNH
hPa
Press
MSL
hPa
Rain
since 9 am
mm
Dir
 
Spd
km/h
Gust
km/h
Spd
kts
Gust
kts
30/11:30pm 1.8 -0.4 0.9 94 0.3 SE 2 6 1 3 - - 0.0
30/11:00pm 2.2 -0.4 1.2 93 0.4 ENE 4 9 2 5 - - 0.0
30/10:30pm 3.0 0.9 1.8 92 0.5 NE 2 6 1 3 - - 0.0
30/10:00pm 3.6 2.0 2.4 92 0.5 CALM 0 0 0 0 - - 0.0
30/09:30pm 3.9 2.3 2.7 92 0.5 CALM 0 0 0 0 - - 0.0
30/09:00pm 4.4 2.9 3.1 91 0.5 CALM 0 0 0 0 - - 0.0
30/08:30pm 5.0 3.5 3.2 88 0.7 CALM 0 0 0 0 - - 0.0
30/08:00pm 6.4 4.3 3.9 84 1.1 N 4 7 2 4 - - 0.0
30/07:30pm 7.0 5.7 4.3 83 1.2 CALM 0 0 0 0 - - 0.0
30/07:00pm 7.7 4.8 4.8 82 1.3 WNW 9 13 5 7 - - 0.0
30/06:30pm 8.1 5.2 4.9 80 1.4 WNW 9 11 5 6 - - 0.0
30/06:00pm 9.6 7.3 5.8 77 1.7 WNW 7 9 4 5 - - 0.0
30/05:30pm 11.1 8.9 6.0 71 2.4 WNW 7 9 4 5 - - 0.0
30/05:00pm 12.1 11.0 5.0 62 3.3 CALM 0 0 0 0 - - 0.0
30/04:30pm 11.6 10.5 5.0 64 3.0 CALM 0 0 0 0 - - 0.0
30/04:00pm 11.6 9.3 5.0 64 3.0 E 6 11 3 6 - - 0.0
30/03:30pm 11.6 10.2 5.7 67 2.7 N 2 9 1 5 - - 0.0
30/03:00pm 11.4 9.2 5.3 66 2.8 SSW 6 11 3 6 - - 0.0
30/02:30pm 11.0 8.7 4.7 65 2.9 SSE 6 7 3 4 - - 0.0
30/02:00pm 11.0 9.4 6.2 72 2.2 SSE 4 9 2 5 - - 0.0
30/01:30pm 10.8 8.6 6.0 72 2.2 S 7 11 4 6 - - 0.0
30/01:00pm 10.9 7.8 5.7 70 2.4 ESE 11 15 6 8 - - 0.0
30/12:30pm 10.5 8.2 5.7 72 2.2 E 7 11 4 6 - - 0.0
30/12:00pm 10.3 7.7 5.9 74 2.0 ESE 9 15 5 8 - - 0.0
30/11:30am 10.2 6.4 5.8 74 2.0 SE 15 20 8 11 - - 0.0
30/11:00am 10.1 6.8 6.3 77 1.8 SE 13 19 7 10 - - 0.0
30/10:30am 10.0 7.0 6.2 77 1.8 ESE 11 15 6 8 - - 0.0
30/10:00am 9.6 5.9 6.1 79 1.6 ESE 15 20 8 11 - - 0.0
30/09:30am 9.7 6.5 6.8 82 1.4 SSE 13 17 7 9 - - 0.0
30/09:00am 8.6 5.3 6.4 86 1.0 SE 13 17 7 9 - - 0.0
30/08:30am 7.3 4.5 6.9 97 0.2 SE 11 15 6 8 - - 0.0
30/08:00am 5.8 4.1 5.7 99 0.0 SSE 4 7 2 4 - - 0.0
30/07:30am 4.9 3.7 4.8 99 0.0 CALM 0 0 0 0 - - 0.0
30/07:00am 3.4 2.0 3.3 99 0.0 CALM 0 0 0 0 - - 0.0
30/06:30am 2.4 0.8 2.3 99 0.0 CALM 0 0 0 0 - - 0.0
30/06:00am 2.7 0.8 2.6 99 0.0 S 2 6 1 3 - - 0.0
30/05:30am 1.9 -0.9 1.8 99 0.0 SSE 6 9 3 5 - - 0.0
30/05:00am 1.7 -1.2 1.6 99 0.0 SSE 6 9 3 5 - - 0.0
30/04:30am 1.1 -2.1 1.0 99 0.0 SE 7 11 4 6 - - 0.0
30/04:00am 1.4 -1.7 1.3 99 0.0 SE 7 9 4 5 - - 0.0
30/03:30am 1.3 -2.2 1.0 98 0.1 SE 9 11 5 6 - - 0.0
30/03:00am 1.6 -1.9 1.3 98 0.1 SE 9 11 5 6 - - 0.0
30/02:30am 2.4 -1.7 2.1 98 0.1 SSE 13 15 7 8 - - 0.0
30/02:00am 2.3 -1.8 2.0 98 0.1 SE 13 13 7 7 - - 0.0
30/01:30am 1.9 -1.9 1.5 97 0.2 SE 11 13 6 7 - - 0.0
30/01:00am 2.8 -0.9 2.4 97 0.2 SE 11 13 6 7 - - 0.0
30/12:30am 2.5 -1.3 1.9 96 0.2 SE 11 13 6 7 - - 0.0
30/12:00am 2.2 -2.0 1.5 95 0.3 SE 13 13 7 7 - - 0.0
 
Date/Time
CST
Temp
°C
App
Temp
°C
Dew
Point
Rel
Hum
%
Delta-T
°C
Wind Press
QNH
hPa
Press
MSL
hPa
Rain
since 9 am
mm
Dir
 
Spd
km/h
Gust
km/h
Spd
kts
Gust
kts
29/11:30pm 2.8 -0.9 2.1 95 0.3 SE 11 13 6 7 - - 0.0
29/11:00pm 2.8 -0.6 1.9 94 0.4 SE 9 11 5 6 - - 0.0
29/10:30pm 2.9 -0.5 1.9 93 0.4 SE 9 11 5 6 - - 0.0
29/10:00pm 3.4 -0.3 2.2 92 0.5 SSE 11 13 6 7 - - 0.0
29/09:30pm 3.4 -0.3 2.1 91 0.5 SE 11 13 6 7 - - 0.0
29/09:00pm 3.5 -0.2 2.2 91 0.5 SE 11 11 6 6 - - 0.0
29/08:30pm 4.0 0.3 2.5 90 0.6 SE 11 13 6 7 - - 0.0
29/08:00pm 5.0 1.8 2.9 86 0.9 SE 9 11 5 6 - - 0.0
29/07:30pm 5.9 2.3 3.2 83 1.1 SSE 11 13 6 7 - - 0.0
29/07:00pm 7.5 3.7 3.7 77 1.6 SSE 13 15 7 8 - - 0.0
29/06:30pm 8.5 4.7 3.8 72 2.0 SSE 13 19 7 10 - - 0.0
29/06:00pm 9.9 5.7 3.9 66 2.6 SSE 15 20 8 11 - - 0.0
29/05:30pm 10.0 5.7 3.5 64 2.8 SSE 15 20 8 11 - - 0.0
29/05:00pm 11.1 6.0 2.9 57 3.6 SSE 19 24 10 13 - - 0.0
29/04:30pm 12.0 7.9 2.2 51 4.2 SSE 13 17 7 9 - - 0.0
29/04:00pm 12.4 7.5 1.7 48 4.6 SSE 17 28 9 15 - - 0.0
29/03:30pm 11.7 6.4 1.6 50 4.3 SE 19 28 10 15 - - 0.0
29/03:00pm 12.2 7.6 1.5 48 4.6 SSE 15 24 8 13 - - 0.0
29/02:30pm 11.8 7.2 1.4 49 4.4 SSE 15 22 8 12 - - 0.0
29/02:00pm 11.6 7.2 2.6 54 3.9 SSE 15 24 8 13 - - 0.0
29/01:30pm 11.7 7.1 1.6 50 4.3 SSE 15 24 8 13 - - 0.0
29/01:00pm 12.0 7.0 3.5 56 3.8 SSE 19 28 10 15 - - 0.0
29/12:30pm 12.0 6.8 2.2 51 4.2 ESE 19 35 10 19 - - 0.0
29/12:00pm 11.8 6.4 2.5 53 4.0 SE 20 30 11 16 - - 0.0
29/11:30am 11.3 5.5 2.1 53 3.9 SE 22 32 12 17 - - 0.0
29/11:00am 10.9 5.3 1.4 52 4.0 SE 20 32 11 17 - - 0.0
29/10:30am 10.1 4.0 0.4 51 3.9 ESE 22 30 12 16 - - 0.0
29/10:00am 9.9 4.5 2.3 59 3.2 SE 20 32 11 17 - - 0.0
29/09:30am 9.0 5.1 3.2 67 2.5 SE 13 19 7 10 - - 0.0
29/09:00am 7.0 3.4 2.9 75 1.7 SSE 11 13 6 7 - - 0.4
29/08:30am 5.5 1.9 2.8 83 1.1 SE 11 13 6 7 - - 0.4
29/08:00am 3.4 -0.2 2.7 95 0.3 SE 11 13 6 7 - - 0.4
29/07:30am 1.3 -2.2 1.2 99 0.0 SE 9 9 5 5 - - 0.4
29/07:00am 0.3 -3.8 0.0 98 0.1 SE 11 11 6 6 - - 0.4
29/06:30am 0.2 -3.9 -0.1 98 0.1 SSE 11 13 6 7 - - 0.4
29/06:00am 0.5 -3.5 0.2 98 0.1 SE 11 13 6 7 - - 0.4
29/05:30am 1.1 -2.9 0.7 97 0.1 SE 11 11 6 6 - - 0.4
29/05:00am 1.3 -2.3 0.7 96 0.2 SE 9 9 5 5 - - 0.4
29/04:30am 2.3 -1.5 1.7 96 0.2 SSE 11 13 6 7 - - 0.4
29/04:00am 2.8 -0.5 2.2 96 0.2 SSE 9 11 5 6 - - 0.4
29/03:30am 3.8 0.6 3.1 95 0.3 SSE 9 11 5 6 - - 0.4
29/03:00am 5.0 1.6 4.1 94 0.4 SSE 11 13 6 7 - - 0.2
29/02:30am 5.7 2.1 4.8 94 0.4 SSE 13 19 7 10 - - 0.2
29/02:00am 5.9 2.3 5.2 95 0.3 SE 13 17 7 9 - - 0.2
29/01:30am 6.0 2.8 5.1 94 0.4 SSE 11 15 6 8 - - 0.2
29/01:00am 6.0 2.7 4.8 92 0.5 SSE 11 13 6 7 - - 0.2
29/12:30am 6.4 3.6 5.2 92 0.5 SSE 9 11 5 6 - - 0.2
29/12:00am 7.0 4.7 5.6 91 0.6 SSE 7 9 4 5 - - 0.2
 
Date/Time
CST
Temp
°C
App
Temp
°C
Dew
Point
Rel
Hum
%
Delta-T
°C
Wind Press
QNH
hPa
Press
MSL
hPa
Rain
since 9 am
mm
Dir
 
Spd
km/h
Gust
km/h
Spd
kts
Gust
kts
28/11:30pm 7.6 4.6 6.2 91 0.6 SSE 11 13 6 7 - - 0.2
28/11:00pm 7.5 4.2 6.3 92 0.5 SSE 13 17 7 9 - - 0.2
28/10:30pm 7.5 4.7 6.8 95 0.3 SSE 11 15 6 8 - - 0.2
28/10:00pm 7.8 5.0 6.9 94 0.4 SSE 11 15 6 8 - - 0.2
28/09:30pm 8.8 6.2 7.9 94 0.4 SSE 11 17 6 9 - - 0.2
28/09:00pm 8.6 7.8 8.2 97 0.2 W 2 6 1 3 - - 0.2
28/08:30pm 9.4 8.0 8.9 97 0.2 WNW 6 7 3 4 - - 0.2
28/08:00pm 9.8 8.3 9.2 96 0.3 W 7 9 4 5 - - 0.2
28/07:30pm 9.7 8.8 9.1 96 0.3 SSW 4 7 2 4 - - 0.2
28/07:00pm 9.6 9.3 8.7 94 0.4 CALM 0 0 0 0 - - 0.0
28/06:30pm 9.5 7.9 8.6 94 0.4 W 7 9 4 5 - - 0.0
28/06:00pm 10.1 8.2 8.9 92 0.6 W 9 13 5 7 - - 0.0
28/05:30pm 10.9 9.0 9.2 89 0.8 W 9 13 5 7 - - 0.0
28/05:00pm 11.5 9.3 9.2 86 1.2 W 11 13 6 7 - - 0.0
28/04:30pm 11.5 9.5 8.5 82 1.5 WSW 9 13 5 7 - - 0.0
28/04:00pm 13.0 11.0 6.1 63 3.3 SW 6 9 3 5 - - 0.0
28/03:30pm 13.3 11.6 5.9 61 3.5 SSW 4 9 2 5 - - 0.0
28/03:00pm 13.0 10.8 5.4 60 3.6 S 6 9 3 5 - - 0.0
28/02:30pm 13.0 10.3 5.4 60 3.6 SSE 9 17 5 9 - - 0.0
28/02:00pm 12.8 9.4 5.7 62 3.3 SSW 13 17 7 9 - - 0.0
28/01:30pm 13.1 9.4 6.2 63 3.3 S 15 20 8 11 - - 0.0
28/01:00pm 12.8 8.8 5.0 59 3.6 SSE 15 19 8 10 - - 0.0
28/12:30pm 12.8 8.6 5.7 62 3.3 SSE 17 22 9 12 - - 0.0
28/12:00pm 12.6 8.4 5.8 63 3.2 SE 17 24 9 13 - - 0.0
28/11:30am 13.0 8.8 5.7 61 3.4 SSE 17 26 9 14 - - 0.0
28/11:00am 11.9 7.9 4.9 62 3.2 SE 15 19 8 10 - - 0.0
28/10:30am 11.4 7.4 4.8 64 3.0 SE 15 20 8 11 - - 0.0
28/10:00am 10.4 7.1 4.8 68 2.5 S 11 15 6 8 - - 0.0
28/09:30am 9.0 7.0 7.3 89 0.8 S 7 11 4 6 - - 0.0
28/09:00am 7.8 6.9 7.7 99 0.0 S 2 7 1 4 - - 1.8
28/08:30am 6.8 6.0 6.7 99 0.0 CALM 0 0 0 0 - - 1.8
28/08:00am 5.9 4.9 5.8 99 0.0 CALM 0 0 0 0 - - 1.8
28/07:30am 4.7 3.5 4.6 99 0.0 CALM 0 0 0 0 - - 1.8
28/07:00am 3.7 2.3 3.6 99 0.0 CALM 0 0 0 0 - - 1.8
28/06:30am 3.1 0.5 3.0 99 0.0 NNW 6 7 3 4 - - 1.8
28/06:00am 2.0 0.3 1.9 99 0.0 CALM 0 0 0 0 - - 1.8

Other Formats:

Comma delimited format used in spreadsheet applications
http://www.bom.gov.au/fwo/IDS60801/IDS60801.95823.axf

JavaScript Object Notation format (JSON) in row-major order
http://www.bom.gov.au/fwo/IDS60801/IDS60801.95823.json